sensor_id;sensor_type;location;lat;lon;timestamp;P1;durP1;ratioP1;P2;durP2;ratioP2
3006;SDS011;1513;47.650;10.720;2023-03-23T00:01:47;5.60;;;2.50;;
3006;SDS011;1513;47.650;10.720;2023-03-23T00:04:15;3.50;;;2.73;;
3006;SDS011;1513;47.650;10.720;2023-03-23T00:06:42;4.27;;;2.60;;
3006;SDS011;1513;47.650;10.720;2023-03-23T00:09:10;3.10;;;2.80;;
3006;SDS011;1513;47.650;10.720;2023-03-23T00:11:40;6.67;;;2.67;;
3006;SDS011;1513;47.650;10.720;2023-03-23T00:14:08;3.73;;;2.97;;
3006;SDS011;1513;47.650;10.720;2023-03-23T00:16:39;6.20;;;2.50;;
3006;SDS011;1513;47.650;10.720;2023-03-23T00:19:10;3.47;;;2.83;;
3006;SDS011;1513;47.650;10.720;2023-03-23T00:21:40;2.60;;;2.40;;
3006;SDS011;1513;47.650;10.720;2023-03-23T00:24:12;5.70;;;2.57;;
3006;SDS011;1513;47.650;10.720;2023-03-23T00:26:47;3.77;;;2.70;;
3006;SDS011;1513;47.650;10.720;2023-03-23T00:29:18;3.60;;;3.10;;
3006;SDS011;1513;47.650;10.720;2023-03-23T00:31:49;3.30;;;2.47;;
3006;SDS011;1513;47.650;10.720;2023-03-23T00:34:16;4.07;;;2.20;;
3006;SDS011;1513;47.650;10.720;2023-03-23T00:36:45;5.00;;;2.57;;
3006;SDS011;1513;47.650;10.720;2023-03-23T00:39:12;2.80;;;2.50;;
3006;SDS011;1513;47.650;10.720;2023-03-23T00:41:42;3.20;;;2.70;;
3006;SDS011;1513;47.650;10.720;2023-03-23T00:44:10;3.17;;;2.30;;
3006;SDS011;1513;47.650;10.720;2023-03-23T00:46:46;4.53;;;2.33;;
3006;SDS011;1513;47.650;10.720;2023-03-23T00:49:18;5.47;;;3.13;;
3006;SDS011;1513;47.650;10.720;2023-03-23T00:51:49;4.10;;;3.00;;
3006;SDS011;1513;47.650;10.720;2023-03-23T00:54:16;3.60;;;2.43;;
3006;SDS011;1513;47.650;10.720;2023-03-23T00:56:42;2.67;;;2.20;;
3006;SDS011;1513;47.650;10.720;2023-03-23T00:59:09;2.63;;;2.17;;
3006;SDS011;1513;47.650;10.720;2023-03-23T01:01:35;2.70;;;2.10;;
3006;SDS011;1513;47.650;10.720;2023-03-23T01:04:02;2.30;;;2.10;;
3006;SDS011;1513;47.650;10.720;2023-03-23T01:06:32;2.70;;;2.13;;
3006;SDS011;1513;47.650;10.720;2023-03-23T01:09:02;2.67;;;2.40;;
3006;SDS011;1513;47.650;10.720;2023-03-23T01:11:28;2.90;;;2.43;;
3006;SDS011;1513;47.650;10.720;2023-03-23T01:13:55;6.43;;;2.43;;
3006;SDS011;1513;47.650;10.720;2023-03-23T01:16:21;2.43;;;2.10;;
3006;SDS011;1513;47.650;10.720;2023-03-23T01:18:47;2.43;;;2.23;;
3006;SDS011;1513;47.650;10.720;2023-03-23T01:21:14;5.90;;;2.70;;
3006;SDS011;1513;47.650;10.720;2023-03-23T01:23:42;3.10;;;2.13;;
3006;SDS011;1513;47.650;10.720;2023-03-23T01:26:10;3.00;;;2.60;;
3006;SDS011;1513;47.650;10.720;2023-03-23T01:28:41;3.50;;;2.30;;
3006;SDS011;1513;47.650;10.720;2023-03-23T01:31:10;2.80;;;2.50;;
3006;SDS011;1513;47.650;10.720;2023-03-23T01:33:41;4.90;;;3.07;;
3006;SDS011;1513;47.650;10.720;2023-03-23T01:36:21;8.90;;;2.93;;
3006;SDS011;1513;47.650;10.720;2023-03-23T01:38:49;3.27;;;2.50;;
3006;SDS011;1513;47.650;10.720;2023-03-23T01:41:16;3.90;;;3.17;;
3006;SDS011;1513;47.650;10.720;2023-03-23T01:44:00;3.80;;;2.87;;
3006;SDS011;1513;47.650;10.720;2023-03-23T01:46:57;4.73;;;3.13;;
3006;SDS011;1513;47.650;10.720;2023-03-23T01:49:28;2.73;;;2.53;;
3006;SDS011;1513;47.650;10.720;2023-03-23T01:52:06;2.83;;;2.63;;
3006;SDS011;1513;47.650;10.720;2023-03-23T01:54:35;3.67;;;2.53;;
3006;SDS011;1513;47.650;10.720;2023-03-23T01:57:04;2.93;;;2.70;;
3006;SDS011;1513;47.650;10.720;2023-03-23T01:59:34;3.37;;;2.50;;
3006;SDS011;1513;47.650;10.720;2023-03-23T02:02:19;2.30;;;2.20;;
3006;SDS011;1513;47.650;10.720;2023-03-23T02:04:47;4.30;;;2.90;;
3006;SDS011;1513;47.650;10.720;2023-03-23T02:07:15;6.00;;;2.87;;
3006;SDS011;1513;47.650;10.720;2023-03-23T02:09:43;5.13;;;3.07;;
3006;SDS011;1513;47.650;10.720;2023-03-23T02:12:09;4.70;;;2.60;;
3006;SDS011;1513;47.650;10.720;2023-03-23T02:14:37;3.20;;;2.47;;
3006;SDS011;1513;47.650;10.720;2023-03-23T02:22:58;3.97;;;3.00;;
3006;SDS011;1513;47.650;10.720;2023-03-23T02:31:17;4.93;;;3.10;;
3006;SDS011;1513;47.650;10.720;2023-03-23T02:33:50;3.70;;;2.63;;
3006;SDS011;1513;47.650;10.720;2023-03-23T02:36:23;5.80;;;3.47;;
3006;SDS011;1513;47.650;10.720;2023-03-23T02:39:57;5.20;;;2.70;;
3006;SDS011;1513;47.650;10.720;2023-03-23T02:44:34;8.43;;;3.60;;
3006;SDS011;1513;47.650;10.720;2023-03-23T02:47:04;5.57;;;3.50;;
3006;SDS011;1513;47.650;10.720;2023-03-23T02:49:32;5.10;;;3.23;;
3006;SDS011;1513;47.650;10.720;2023-03-23T02:52:02;5.10;;;3.43;;
3006;SDS011;1513;47.650;10.720;2023-03-23T02:54:32;8.63;;;3.03;;
3006;SDS011;1513;47.650;10.720;2023-03-23T02:57:00;8.30;;;3.90;;
3006;SDS011;1513;47.650;10.720;2023-03-23T02:59:29;5.23;;;3.43;;
3006;SDS011;1513;47.650;10.720;2023-03-23T03:01:58;6.03;;;3.90;;
3006;SDS011;1513;47.650;10.720;2023-03-23T03:04:31;6.10;;;3.90;;
3006;SDS011;1513;47.650;10.720;2023-03-23T03:10:28;3.90;;;2.93;;
3006;SDS011;1513;47.650;10.720;2023-03-23T03:12:52;6.90;;;3.77;;
3006;SDS011;1513;47.650;10.720;2023-03-23T03:15:27;5.30;;;3.90;;
3006;SDS011;1513;47.650;10.720;2023-03-23T03:21:33;6.70;;;4.00;;
3006;SDS011;1513;47.650;10.720;2023-03-23T03:24:03;8.00;;;3.50;;
3006;SDS011;1513;47.650;10.720;2023-03-23T03:26:32;9.40;;;3.80;;
3006;SDS011;1513;47.650;10.720;2023-03-23T03:29:15;4.37;;;3.67;;
3006;SDS011;1513;47.650;10.720;2023-03-23T03:31:46;6.60;;;3.87;;
3006;SDS011;1513;47.650;10.720;2023-03-23T03:34:14;5.47;;;4.37;;
3006;SDS011;1513;47.650;10.720;2023-03-23T03:36:46;5.13;;;3.93;;
3006;SDS011;1513;47.650;10.720;2023-03-23T03:39:15;6.53;;;4.10;;
3006;SDS011;1513;47.650;10.720;2023-03-23T03:41:43;5.97;;;4.10;;
3006;SDS011;1513;47.650;10.720;2023-03-23T03:44:09;5.67;;;4.10;;
3006;SDS011;1513;47.650;10.720;2023-03-23T03:46:36;19.63;;;3.73;;
3006;SDS011;1513;47.650;10.720;2023-03-23T03:49:03;6.87;;;4.33;;
3006;SDS011;1513;47.650;10.720;2023-03-23T03:51:34;4.53;;;3.50;;
3006;SDS011;1513;47.650;10.720;2023-03-23T03:54:01;7.10;;;3.70;;
3006;SDS011;1513;47.650;10.720;2023-03-23T03:56:28;7.60;;;4.60;;
3006;SDS011;1513;47.650;10.720;2023-03-23T03:59:08;12.80;;;6.40;;
3006;SDS011;1513;47.650;10.720;2023-03-23T04:01:54;9.20;;;5.60;;
3006;SDS011;1513;47.650;10.720;2023-03-23T04:04:21;7.87;;;4.30;;
3006;SDS011;1513;47.650;10.720;2023-03-23T04:06:47;9.30;;;6.00;;
3006;SDS011;1513;47.650;10.720;2023-03-23T04:09:14;5.47;;;3.77;;
3006;SDS011;1513;47.650;10.720;2023-03-23T04:11:41;10.20;;;5.97;;
3006;SDS011;1513;47.650;10.720;2023-03-23T04:14:26;13.30;;;7.30;;
3006;SDS011;1513;47.650;10.720;2023-03-23T04:16:53;12.53;;;6.53;;
3006;SDS011;1513;47.650;10.720;2023-03-23T04:19:22;8.20;;;5.27;;
3006;SDS011;1513;47.650;10.720;2023-03-23T04:21:49;5.53;;;3.60;;
3006;SDS011;1513;47.650;10.720;2023-03-23T04:24:17;5.13;;;3.13;;
3006;SDS011;1513;47.650;10.720;2023-03-23T04:26:47;4.20;;;2.70;;
3006;SDS011;1513;47.650;10.720;2023-03-23T04:29:22;3.43;;;2.87;;
3006;SDS011;1513;47.650;10.720;2023-03-23T04:32:06;2.60;;;2.40;;
3006;SDS011;1513;47.650;10.720;2023-03-23T04:34:39;3.83;;;2.53;;
3006;SDS011;1513;47.650;10.720;2023-03-23T04:37:06;4.10;;;2.97;;
3006;SDS011;1513;47.650;10.720;2023-03-23T04:39:34;3.23;;;2.93;;
3006;SDS011;1513;47.650;10.720;2023-03-23T04:42:02;3.57;;;3.00;;
3006;SDS011;1513;47.650;10.720;2023-03-23T04:44:49;3.90;;;2.60;;
3006;SDS011;1513;47.650;10.720;2023-03-23T04:47:20;4.77;;;3.10;;
3006;SDS011;1513;47.650;10.720;2023-03-23T04:49:53;7.20;;;3.23;;
3006;SDS011;1513;47.650;10.720;2023-03-23T04:52:26;4.50;;;2.80;;
3006;SDS011;1513;47.650;10.720;2023-03-23T04:54:56;2.93;;;2.50;;
3006;SDS011;1513;47.650;10.720;2023-03-23T04:57:23;4.23;;;2.63;;
3006;SDS011;1513;47.650;10.720;2023-03-23T05:00:12;4.37;;;2.90;;
3006;SDS011;1513;47.650;10.720;2023-03-23T05:02:46;3.80;;;2.63;;
3006;SDS011;1513;47.650;10.720;2023-03-23T05:05:17;3.43;;;2.60;;
3006;SDS011;1513;47.650;10.720;2023-03-23T05:07:44;7.23;;;2.83;;
3006;SDS011;1513;47.650;10.720;2023-03-23T05:10:14;4.53;;;2.57;;
3006;SDS011;1513;47.650;10.720;2023-03-23T05:12:42;3.20;;;2.67;;
3006;SDS011;1513;47.650;10.720;2023-03-23T05:15:10;3.63;;;3.20;;
3006;SDS011;1513;47.650;10.720;2023-03-23T05:17:37;6.70;;;3.80;;
3006;SDS011;1513;47.650;10.720;2023-03-23T05:20:12;5.03;;;3.13;;
3006;SDS011;1513;47.650;10.720;2023-03-23T05:22:44;9.17;;;3.00;;
3006;SDS011;1513;47.650;10.720;2023-03-23T05:25:13;4.27;;;2.70;;
3006;SDS011;1513;47.650;10.720;2023-03-23T05:27:44;5.20;;;2.73;;
3006;SDS011;1513;47.650;10.720;2023-03-23T05:30:22;3.10;;;2.80;;
3006;SDS011;1513;47.650;10.720;2023-03-23T05:32:48;3.67;;;2.90;;
3006;SDS011;1513;47.650;10.720;2023-03-23T05:35:39;3.93;;;2.40;;
3006;SDS011;1513;47.650;10.720;2023-03-23T05:38:05;6.33;;;3.10;;
3006;SDS011;1513;47.650;10.720;2023-03-23T05:40:32;6.13;;;2.33;;
3006;SDS011;1513;47.650;10.720;2023-03-23T05:43:05;3.47;;;2.60;;
3006;SDS011;1513;47.650;10.720;2023-03-23T05:45:53;6.53;;;2.80;;
3006;SDS011;1513;47.650;10.720;2023-03-23T05:48:20;3.90;;;2.70;;
3006;SDS011;1513;47.650;10.720;2023-03-23T05:50:47;6.10;;;2.70;;
3006;SDS011;1513;47.650;10.720;2023-03-23T05:53:13;2.90;;;2.60;;
3006;SDS011;1513;47.650;10.720;2023-03-23T05:55:39;3.63;;;2.60;;
3006;SDS011;1513;47.650;10.720;2023-03-23T05:58:20;4.47;;;2.70;;
3006;SDS011;1513;47.650;10.720;2023-03-23T06:00:47;2.57;;;2.20;;
3006;SDS011;1513;47.650;10.720;2023-03-23T06:03:21;5.47;;;2.83;;
3006;SDS011;1513;47.650;10.720;2023-03-23T06:05:57;4.33;;;2.20;;
3006;SDS011;1513;47.650;10.720;2023-03-23T06:08:31;5.00;;;2.90;;
3006;SDS011;1513;47.650;10.720;2023-03-23T06:10:57;3.67;;;2.77;;
3006;SDS011;1513;47.650;10.720;2023-03-23T06:13:23;3.20;;;2.27;;
3006;SDS011;1513;47.650;10.720;2023-03-23T06:15:56;3.97;;;2.37;;
3006;SDS011;1513;47.650;10.720;2023-03-23T06:18:46;2.60;;;2.40;;
3006;SDS011;1513;47.650;10.720;2023-03-23T06:21:21;3.90;;;2.30;;
3006;SDS011;1513;47.650;10.720;2023-03-23T06:24:08;2.93;;;2.30;;
3006;SDS011;1513;47.650;10.720;2023-03-23T06:26:36;2.70;;;2.13;;
3006;SDS011;1513;47.650;10.720;2023-03-23T06:29:07;3.50;;;2.70;;
3006;SDS011;1513;47.650;10.720;2023-03-23T06:31:41;2.60;;;2.40;;
3006;SDS011;1513;47.650;10.720;2023-03-23T06:34:10;3.93;;;2.53;;
3006;SDS011;1513;47.650;10.720;2023-03-23T06:36:55;3.10;;;2.50;;
3006;SDS011;1513;47.650;10.720;2023-03-23T06:39:35;2.70;;;2.20;;
3006;SDS011;1513;47.650;10.720;2023-03-23T06:42:26;5.60;;;2.87;;
3006;SDS011;1513;47.650;10.720;2023-03-23T06:45:15;10.30;;;3.67;;
3006;SDS011;1513;47.650;10.720;2023-03-23T06:47:42;4.17;;;3.10;;
3006;SDS011;1513;47.650;10.720;2023-03-23T06:50:08;8.00;;;4.30;;
3006;SDS011;1513;47.650;10.720;2023-03-23T06:52:35;6.77;;;4.43;;
3006;SDS011;1513;47.650;10.720;2023-03-23T06:55:02;4.80;;;3.00;;
3006;SDS011;1513;47.650;10.720;2023-03-23T06:57:29;6.90;;;3.80;;
3006;SDS011;1513;47.650;10.720;2023-03-23T06:59:55;6.03;;;2.97;;
3006;SDS011;1513;47.650;10.720;2023-03-23T07:02:23;4.60;;;3.30;;
3006;SDS011;1513;47.650;10.720;2023-03-23T07:04:52;5.00;;;2.83;;
3006;SDS011;1513;47.650;10.720;2023-03-23T07:07:21;4.50;;;3.50;;
3006;SDS011;1513;47.650;10.720;2023-03-23T07:09:54;3.33;;;2.87;;
3006;SDS011;1513;47.650;10.720;2023-03-23T07:12:22;5.57;;;3.33;;
3006;SDS011;1513;47.650;10.720;2023-03-23T07:14:50;7.80;;;2.90;;
3006;SDS011;1513;47.650;10.720;2023-03-23T07:17:17;12.03;;;3.13;;
3006;SDS011;1513;47.650;10.720;2023-03-23T07:19:58;18.27;;;12.40;;
3006;SDS011;1513;47.650;10.720;2023-03-23T07:22:25;9.90;;;7.30;;
3006;SDS011;1513;47.650;10.720;2023-03-23T07:24:59;7.93;;;6.00;;
3006;SDS011;1513;47.650;10.720;2023-03-23T07:27:32;4.90;;;4.07;;
3006;SDS011;1513;47.650;10.720;2023-03-23T07:30:00;5.60;;;4.17;;
3006;SDS011;1513;47.650;10.720;2023-03-23T07:32:27;4.43;;;3.07;;
3006;SDS011;1513;47.650;10.720;2023-03-23T07:34:54;4.30;;;3.37;;
3006;SDS011;1513;47.650;10.720;2023-03-23T07:37:33;3.90;;;3.17;;
3006;SDS011;1513;47.650;10.720;2023-03-23T07:39:59;5.67;;;3.13;;
3006;SDS011;1513;47.650;10.720;2023-03-23T07:42:33;3.80;;;3.30;;
3006;SDS011;1513;47.650;10.720;2023-03-23T07:44:59;6.20;;;3.20;;
3006;SDS011;1513;47.650;10.720;2023-03-23T07:47:25;4.47;;;3.43;;
3006;SDS011;1513;47.650;10.720;2023-03-23T07:49:53;3.83;;;3.37;;
3006;SDS011;1513;47.650;10.720;2023-03-23T07:52:28;5.30;;;3.40;;
3006;SDS011;1513;47.650;10.720;2023-03-23T07:54:56;3.80;;;3.27;;
3006;SDS011;1513;47.650;10.720;2023-03-23T07:57:37;4.20;;;3.43;;
3006;SDS011;1513;47.650;10.720;2023-03-23T08:00:05;4.00;;;3.43;;
3006;SDS011;1513;47.650;10.720;2023-03-23T08:02:41;3.30;;;3.00;;
3006;SDS011;1513;47.650;10.720;2023-03-23T08:05:26;4.50;;;3.30;;
3006;SDS011;1513;47.650;10.720;2023-03-23T08:08:12;4.03;;;3.60;;
3006;SDS011;1513;47.650;10.720;2023-03-23T08:10:47;4.30;;;3.17;;
3006;SDS011;1513;47.650;10.720;2023-03-23T08:13:42;4.90;;;3.10;;
3006;SDS011;1513;47.650;10.720;2023-03-23T08:16:15;4.00;;;3.20;;
3006;SDS011;1513;47.650;10.720;2023-03-23T08:19:02;4.03;;;3.63;;
3006;SDS011;1513;47.650;10.720;2023-03-23T08:21:44;6.53;;;3.50;;
3006;SDS011;1513;47.650;10.720;2023-03-23T08:24:16;5.47;;;3.90;;
3006;SDS011;1513;47.650;10.720;2023-03-23T08:27:06;5.87;;;3.67;;
3006;SDS011;1513;47.650;10.720;2023-03-23T08:29:32;5.30;;;3.60;;
3006;SDS011;1513;47.650;10.720;2023-03-23T08:32:13;5.63;;;3.47;;
3006;SDS011;1513;47.650;10.720;2023-03-23T08:35:05;12.40;;;3.90;;
3006;SDS011;1513;47.650;10.720;2023-03-23T08:38:06;5.33;;;3.67;;
3006;SDS011;1513;47.650;10.720;2023-03-23T08:40:51;5.03;;;3.73;;
3006;SDS011;1513;47.650;10.720;2023-03-23T08:43:43;4.43;;;3.23;;
3006;SDS011;1513;47.650;10.720;2023-03-23T08:46:28;7.13;;;3.83;;
3006;SDS011;1513;47.650;10.720;2023-03-23T08:49:11;4.87;;;3.27;;
3006;SDS011;1513;47.650;10.720;2023-03-23T08:51:56;5.30;;;3.53;;
3006;SDS011;1513;47.650;10.720;2023-03-23T08:54:42;5.20;;;3.40;;
3006;SDS011;1513;47.650;10.720;2023-03-23T08:57:41;5.00;;;3.50;;
3006;SDS011;1513;47.650;10.720;2023-03-23T09:00:38;4.63;;;3.30;;
3006;SDS011;1513;47.650;10.720;2023-03-23T09:03:43;7.93;;;3.23;;
3006;SDS011;1513;47.650;10.720;2023-03-23T09:06:33;4.40;;;3.37;;
3006;SDS011;1513;47.650;10.720;2023-03-23T09:09:01;4.70;;;2.90;;
3006;SDS011;1513;47.650;10.720;2023-03-23T09:11:35;4.20;;;3.30;;
3006;SDS011;1513;47.650;10.720;2023-03-23T09:14:02;3.77;;;3.10;;
3006;SDS011;1513;47.650;10.720;2023-03-23T09:16:29;3.90;;;3.10;;
3006;SDS011;1513;47.650;10.720;2023-03-23T09:18:56;4.30;;;3.23;;
3006;SDS011;1513;47.650;10.720;2023-03-23T09:21:24;6.90;;;3.10;;
3006;SDS011;1513;47.650;10.720;2023-03-23T09:23:51;4.50;;;2.67;;
3006;SDS011;1513;47.650;10.720;2023-03-23T09:26:18;5.10;;;3.73;;
3006;SDS011;1513;47.650;10.720;2023-03-23T09:28:44;4.27;;;3.10;;
3006;SDS011;1513;47.650;10.720;2023-03-23T09:31:11;4.23;;;3.10;;
3006;SDS011;1513;47.650;10.720;2023-03-23T09:33:37;5.60;;;3.40;;
3006;SDS011;1513;47.650;10.720;2023-03-23T09:36:04;4.90;;;3.57;;
3006;SDS011;1513;47.650;10.720;2023-03-23T09:38:33;4.70;;;3.30;;
3006;SDS011;1513;47.650;10.720;2023-03-23T09:41:02;4.87;;;3.20;;
3006;SDS011;1513;47.650;10.720;2023-03-23T09:43:40;8.63;;;3.17;;
3006;SDS011;1513;47.650;10.720;2023-03-23T09:46:29;5.40;;;3.27;;
3006;SDS011;1513;47.650;10.720;2023-03-23T09:49:01;5.30;;;3.80;;
3006;SDS011;1513;47.650;10.720;2023-03-23T09:51:53;5.50;;;4.17;;
3006;SDS011;1513;47.650;10.720;2023-03-23T09:54:47;4.00;;;3.60;;
3006;SDS011;1513;47.650;10.720;2023-03-23T09:57:38;3.77;;;3.13;;
3006;SDS011;1513;47.650;10.720;2023-03-23T10:00:35;3.23;;;2.80;;
3006;SDS011;1513;47.650;10.720;2023-03-23T10:03:10;4.23;;;3.83;;
3006;SDS011;1513;47.650;10.720;2023-03-23T10:05:44;5.30;;;3.63;;
3006;SDS011;1513;47.650;10.720;2023-03-23T10:08:16;4.00;;;3.30;;
3006;SDS011;1513;47.650;10.720;2023-03-23T10:13:24;5.13;;;3.70;;
3006;SDS011;1513;47.650;10.720;2023-03-23T10:15:57;4.33;;;3.70;;
3006;SDS011;1513;47.650;10.720;2023-03-23T10:18:36;6.27;;;4.80;;
3006;SDS011;1513;47.650;10.720;2023-03-23T10:21:21;7.07;;;4.50;;
3006;SDS011;1513;47.650;10.720;2023-03-23T10:31:58;5.90;;;4.50;;
3006;SDS011;1513;47.650;10.720;2023-03-23T10:34:32;8.73;;;6.20;;
3006;SDS011;1513;47.650;10.720;2023-03-23T10:37:36;12.67;;;6.23;;
3006;SDS011;1513;47.650;10.720;2023-03-23T10:39:56;12.83;;;6.57;;
3006;SDS011;1513;47.650;10.720;2023-03-23T10:42:28;9.93;;;5.77;;
3006;SDS011;1513;47.650;10.720;2023-03-23T10:44:59;8.07;;;5.30;;
3006;SDS011;1513;47.650;10.720;2023-03-23T10:47:33;10.90;;;5.73;;
3006;SDS011;1513;47.650;10.720;2023-03-23T10:50:04;9.50;;;5.67;;
3006;SDS011;1513;47.650;10.720;2023-03-23T10:52:44;8.30;;;5.70;;
3006;SDS011;1513;47.650;10.720;2023-03-23T10:55:14;12.10;;;6.47;;
3006;SDS011;1513;47.650;10.720;2023-03-23T10:57:46;10.17;;;6.07;;
3006;SDS011;1513;47.650;10.720;2023-03-23T11:00:25;11.90;;;6.13;;
3006;SDS011;1513;47.650;10.720;2023-03-23T11:03:00;12.00;;;6.57;;
3006;SDS011;1513;47.650;10.720;2023-03-23T11:08:16;9.43;;;6.27;;
3006;SDS011;1513;47.650;10.720;2023-03-23T11:10:55;7.40;;;6.10;;
3006;SDS011;1513;47.650;10.720;2023-03-23T11:13:45;7.63;;;5.87;;
3006;SDS011;1513;47.650;10.720;2023-03-23T11:16:23;7.83;;;5.83;;
3006;SDS011;1513;47.650;10.720;2023-03-23T11:18:57;7.57;;;5.70;;
3006;SDS011;1513;47.650;10.720;2023-03-23T11:21:25;10.30;;;5.97;;
3006;SDS011;1513;47.650;10.720;2023-03-23T11:23:57;8.17;;;6.00;;
3006;SDS011;1513;47.650;10.720;2023-03-23T11:26:28;11.13;;;7.30;;
3006;SDS011;1513;47.650;10.720;2023-03-23T11:29:14;8.30;;;5.90;;
3006;SDS011;1513;47.650;10.720;2023-03-23T11:34:24;12.80;;;6.20;;
3006;SDS011;1513;47.650;10.720;2023-03-23T11:37:00;7.30;;;4.83;;
3006;SDS011;1513;47.650;10.720;2023-03-23T11:39:46;6.80;;;4.90;;
3006;SDS011;1513;47.650;10.720;2023-03-23T11:42:21;7.83;;;5.20;;
3006;SDS011;1513;47.650;10.720;2023-03-23T11:44:53;6.80;;;5.40;;
3006;SDS011;1513;47.650;10.720;2023-03-23T11:47:32;5.23;;;4.50;;
3006;SDS011;1513;47.650;10.720;2023-03-23T11:50:20;8.43;;;5.00;;
3006;SDS011;1513;47.650;10.720;2023-03-23T11:55:54;7.83;;;4.33;;
3006;SDS011;1513;47.650;10.720;2023-03-23T11:59:01;7.30;;;4.17;;
3006;SDS011;1513;47.650;10.720;2023-03-23T12:07:14;5.13;;;3.80;;
3006;SDS011;1513;47.650;10.720;2023-03-23T12:17:41;8.00;;;5.50;;
3006;SDS011;1513;47.650;10.720;2023-03-23T12:20:15;10.50;;;5.03;;
3006;SDS011;1513;47.650;10.720;2023-03-23T12:34:19;6.90;;;5.40;;
3006;SDS011;1513;47.650;10.720;2023-03-23T12:48:12;9.47;;;6.00;;
3006;SDS011;1513;47.650;10.720;2023-03-23T12:50:59;11.17;;;6.00;;
3006;SDS011;1513;47.650;10.720;2023-03-23T12:53:34;8.17;;;5.10;;
3006;SDS011;1513;47.650;10.720;2023-03-23T12:56:19;10.53;;;5.30;;
3006;SDS011;1513;47.650;10.720;2023-03-23T12:58:50;8.27;;;5.60;;
3006;SDS011;1513;47.650;10.720;2023-03-23T13:01:23;6.37;;;4.70;;
3006;SDS011;1513;47.650;10.720;2023-03-23T13:03:56;6.70;;;4.20;;
3006;SDS011;1513;47.650;10.720;2023-03-23T13:12:01;9.17;;;6.10;;
3006;SDS011;1513;47.650;10.720;2023-03-23T13:20:27;4.50;;;3.43;;
3006;SDS011;1513;47.650;10.720;2023-03-23T13:25:50;5.10;;;3.43;;
3006;SDS011;1513;47.650;10.720;2023-03-23T13:28:19;7.47;;;3.60;;
3006;SDS011;1513;47.650;10.720;2023-03-23T13:30:58;5.37;;;4.53;;
3006;SDS011;1513;47.650;10.720;2023-03-23T13:33:28;6.57;;;4.10;;
3006;SDS011;1513;47.650;10.720;2023-03-23T13:36:04;4.97;;;3.50;;
3006;SDS011;1513;47.650;10.720;2023-03-23T13:38:34;6.33;;;3.27;;
3006;SDS011;1513;47.650;10.720;2023-03-23T13:41:07;4.70;;;3.67;;
3006;SDS011;1513;47.650;10.720;2023-03-23T13:43:36;3.83;;;3.10;;
3006;SDS011;1513;47.650;10.720;2023-03-23T13:46:08;3.80;;;3.13;;
3006;SDS011;1513;47.650;10.720;2023-03-23T13:48:42;3.33;;;3.03;;
3006;SDS011;1513;47.650;10.720;2023-03-23T13:51:25;3.90;;;3.60;;
3006;SDS011;1513;47.650;10.720;2023-03-23T13:54:13;7.50;;;3.90;;
3006;SDS011;1513;47.650;10.720;2023-03-23T13:57:02;7.57;;;3.70;;
3006;SDS011;1513;47.650;10.720;2023-03-23T13:59:48;11.33;;;3.93;;
3006;SDS011;1513;47.650;10.720;2023-03-23T14:02:41;6.80;;;4.20;;
3006;SDS011;1513;47.650;10.720;2023-03-23T14:05:11;4.57;;;3.30;;
3006;SDS011;1513;47.650;10.720;2023-03-23T14:07:59;5.57;;;3.73;;
3006;SDS011;1513;47.650;10.720;2023-03-23T14:10:36;5.70;;;3.90;;
3006;SDS011;1513;47.650;10.720;2023-03-23T14:13:43;12.80;;;4.23;;
3006;SDS011;1513;47.650;10.720;2023-03-23T14:18:51;4.60;;;3.83;;
3006;SDS011;1513;47.650;10.720;2023-03-23T14:21:31;17.43;;;3.77;;
3006;SDS011;1513;47.650;10.720;2023-03-23T14:24:11;7.00;;;3.50;;
3006;SDS011;1513;47.650;10.720;2023-03-23T14:26:40;4.63;;;4.03;;
3006;SDS011;1513;47.650;10.720;2023-03-23T14:29:10;4.90;;;3.90;;
3006;SDS011;1513;47.650;10.720;2023-03-23T14:31:38;5.77;;;4.63;;
3006;SDS011;1513;47.650;10.720;2023-03-23T14:34:15;4.80;;;3.60;;
3006;SDS011;1513;47.650;10.720;2023-03-23T14:36:43;5.77;;;3.93;;
3006;SDS011;1513;47.650;10.720;2023-03-23T14:39:20;7.57;;;3.57;;
3006;SDS011;1513;47.650;10.720;2023-03-23T14:41:55;3.93;;;3.50;;
3006;SDS011;1513;47.650;10.720;2023-03-23T14:44:30;4.10;;;3.70;;
3006;SDS011;1513;47.650;10.720;2023-03-23T14:47:04;10.03;;;3.70;;
3006;SDS011;1513;47.650;10.720;2023-03-23T14:49:33;8.23;;;3.10;;
3006;SDS011;1513;47.650;10.720;2023-03-23T14:52:16;4.60;;;3.07;;
3006;SDS011;1513;47.650;10.720;2023-03-23T14:54:43;5.30;;;3.83;;
3006;SDS011;1513;47.650;10.720;2023-03-23T14:57:11;7.70;;;4.13;;
3006;SDS011;1513;47.650;10.720;2023-03-23T14:59:42;5.33;;;3.40;;
3006;SDS011;1513;47.650;10.720;2023-03-23T15:02:13;9.50;;;3.00;;
3006;SDS011;1513;47.650;10.720;2023-03-23T15:04:59;8.40;;;3.07;;
3006;SDS011;1513;47.650;10.720;2023-03-23T15:07:33;9.47;;;3.00;;
3006;SDS011;1513;47.650;10.720;2023-03-23T15:10:01;4.93;;;2.67;;
3006;SDS011;1513;47.650;10.720;2023-03-23T15:12:31;3.13;;;2.70;;
3006;SDS011;1513;47.650;10.720;2023-03-23T15:15:07;3.03;;;2.77;;
3006;SDS011;1513;47.650;10.720;2023-03-23T15:17:49;3.07;;;2.63;;
3006;SDS011;1513;47.650;10.720;2023-03-23T15:22:53;6.00;;;3.17;;
3006;SDS011;1513;47.650;10.720;2023-03-23T15:25:21;5.37;;;2.97;;
3006;SDS011;1513;47.650;10.720;2023-03-23T15:27:55;5.00;;;3.30;;
3006;SDS011;1513;47.650;10.720;2023-03-23T15:30:48;3.20;;;2.70;;
3006;SDS011;1513;47.650;10.720;2023-03-23T15:33:19;7.23;;;2.53;;
3006;SDS011;1513;47.650;10.720;2023-03-23T15:35:52;3.83;;;3.33;;
3006;SDS011;1513;47.650;10.720;2023-03-23T15:38:28;2.90;;;2.60;;
3006;SDS011;1513;47.650;10.720;2023-03-23T15:40:57;4.03;;;2.80;;
3006;SDS011;1513;47.650;10.720;2023-03-23T15:43:30;3.53;;;2.50;;
3006;SDS011;1513;47.650;10.720;2023-03-23T15:46:05;4.63;;;2.57;;
3006;SDS011;1513;47.650;10.720;2023-03-23T15:48:47;4.57;;;3.17;;
3006;SDS011;1513;47.650;10.720;2023-03-23T15:51:24;3.20;;;2.67;;
3006;SDS011;1513;47.650;10.720;2023-03-23T15:53:52;4.73;;;3.00;;
3006;SDS011;1513;47.650;10.720;2023-03-23T15:56:19;3.53;;;2.73;;
3006;SDS011;1513;47.650;10.720;2023-03-23T15:58:45;5.83;;;3.60;;
3006;SDS011;1513;47.650;10.720;2023-03-23T16:01:13;11.20;;;5.57;;
3006;SDS011;1513;47.650;10.720;2023-03-23T16:03:45;10.97;;;6.80;;
3006;SDS011;1513;47.650;10.720;2023-03-23T16:06:33;15.00;;;6.80;;
3006;SDS011;1513;47.650;10.720;2023-03-23T16:09:00;17.53;;;7.17;;
3006;SDS011;1513;47.650;10.720;2023-03-23T16:11:28;7.70;;;5.30;;
3006;SDS011;1513;47.650;10.720;2023-03-23T16:13:56;13.03;;;4.33;;
3006;SDS011;1513;47.650;10.720;2023-03-23T16:18:51;3.97;;;3.57;;
3006;SDS011;1513;47.650;10.720;2023-03-23T16:21:18;5.27;;;3.57;;
3006;SDS011;1513;47.650;10.720;2023-03-23T16:23:44;12.43;;;4.27;;
3006;SDS011;1513;47.650;10.720;2023-03-23T16:26:11;7.60;;;4.07;;
3006;SDS011;1513;47.650;10.720;2023-03-23T16:28:38;6.30;;;5.00;;
3006;SDS011;1513;47.650;10.720;2023-03-23T16:31:05;8.90;;;4.77;;
3006;SDS011;1513;47.650;10.720;2023-03-23T16:33:32;14.20;;;8.83;;
3006;SDS011;1513;47.650;10.720;2023-03-23T16:35:58;10.87;;;7.73;;
3006;SDS011;1513;47.650;10.720;2023-03-23T16:38:24;7.93;;;6.00;;
3006;SDS011;1513;47.650;10.720;2023-03-23T16:40:51;8.20;;;6.17;;
3006;SDS011;1513;47.650;10.720;2023-03-23T16:43:17;8.77;;;6.97;;
3006;SDS011;1513;47.650;10.720;2023-03-23T16:45:44;8.47;;;7.27;;
3006;SDS011;1513;47.650;10.720;2023-03-23T16:48:12;5.97;;;5.30;;
3006;SDS011;1513;47.650;10.720;2023-03-23T16:50:40;6.80;;;4.20;;
3006;SDS011;1513;47.650;10.720;2023-03-23T16:53:07;4.30;;;3.90;;
3006;SDS011;1513;47.650;10.720;2023-03-23T16:55:35;10.77;;;4.10;;
3006;SDS011;1513;47.650;10.720;2023-03-23T16:58:02;5.27;;;3.50;;
3006;SDS011;1513;47.650;10.720;2023-03-23T17:00:28;5.37;;;3.70;;
3006;SDS011;1513;47.650;10.720;2023-03-23T17:02:55;3.93;;;3.33;;
3006;SDS011;1513;47.650;10.720;2023-03-23T17:05:26;5.97;;;3.33;;
3006;SDS011;1513;47.650;10.720;2023-03-23T17:07:53;3.53;;;3.03;;
3006;SDS011;1513;47.650;10.720;2023-03-23T17:10:20;10.43;;;3.50;;
3006;SDS011;1513;47.650;10.720;2023-03-23T17:12:48;7.37;;;3.60;;
3006;SDS011;1513;47.650;10.720;2023-03-23T17:15:14;4.73;;;3.23;;
3006;SDS011;1513;47.650;10.720;2023-03-23T17:17:41;10.10;;;6.00;;